Terminal Aerodrome Forecast
Issued by NWS St Louis, MO

Home | Current Version | Previous Version | Graphics & Text | Print | Product List | Glossary On
Versions: 1 2 3 4 5 6 7 8 9 10 11 12 13 14 15 16 17 18 19 20 21 22
000
FTUS43 KLSX 201400 AAA
TAFSTL
TAF AMD
KSTL 201456Z 2015/2118 24012G18KT P6SM SCT030 BKN250
     FM210300 24008KT P6SM VCTS SCT040CB BKN100
     FM210800 30010KT P6SM BKN040=

USA.gov is the U.S. government's official web portal to all federal, state and local government web resources and services.